sensor_id;sensor_type;location;lat;lon;timestamp;pressure;altitude;pressure_sealevel;temperature;humidity
63954;BME280;50128;52.094;5.232;2022-12-07T00:00:27;101742.0;;;3.56;100.0
63954;BME280;50128;52.094;5.232;2022-12-07T00:03:40;101743.0;;;3.69;100.0
63954;BME280;50128;52.094;5.232;2022-12-07T00:05:17;101746.0;;;3.7;100.0
63954;BME280;50128;52.094;5.232;2022-12-07T00:06:53;101740.0;;;3.79;100.0
63954;BME280;50128;52.094;5.232;2022-12-07T00:10:07;101734.0;;;3.94;100.0
63954;BME280;50128;52.094;5.232;2022-12-07T00:11:48;101739.0;;;4.12;100.0
63954;BME280;50128;52.094;5.232;2022-12-07T00:13:25;101736.0;;;4.18;100.0
63954;BME280;50128;52.094;5.232;2022-12-07T00:15:01;101738.0;;;4.36;100.0
63954;BME280;50128;52.094;5.232;2022-12-07T00:18:15;101734.0;;;4.3;100.0
63954;BME280;50128;52.094;5.232;2022-12-07T00:19:52;101740.0;;;4.38;100.0
63954;BME280;50128;52.094;5.232;2022-12-07T00:21:30;101740.0;;;4.43;100.0
63954;BME280;50128;52.094;5.232;2022-12-07T00:24:43;101737.0;;;4.47;100.0
63954;BME280;50128;52.094;5.232;2022-12-07T00:26:21;101733.0;;;4.62;100.0
63954;BME280;50128;52.094;5.232;2022-12-07T00:27:58;101725.0;;;4.57;100.0
63954;BME280;50128;52.094;5.232;2022-12-07T00:31:11;101727.0;;;4.49;100.0
63954;BME280;50128;52.094;5.232;2022-12-07T00:32:48;101726.0;;;4.46;100.0
63954;BME280;50128;52.094;5.232;2022-12-07T00:34:24;101725.0;;;4.24;100.0
63954;BME280;50128;52.094;5.232;2022-12-07T00:36:02;101719.0;;;4.24;100.0
63954;BME280;50128;52.094;5.232;2022-12-07T00:39:15;101720.0;;;4.13;100.0
63954;BME280;50128;52.094;5.232;2022-12-07T00:40:55;101716.0;;;4.13;100.0
63954;BME280;50128;52.094;5.232;2022-12-07T00:42:32;101713.0;;;3.97;100.0
63954;BME280;50128;52.094;5.232;2022-12-07T00:45:45;101712.0;;;3.91;100.0
63954;BME280;50128;52.094;5.232;2022-12-07T00:47:21;101709.0;;;3.82;100.0
63954;BME280;50128;52.094;5.232;2022-12-07T00:48:57;101705.0;;;3.81;100.0
63954;BME280;50128;52.094;5.232;2022-12-07T00:50:33;101706.0;;;3.74;100.0
63954;BME280;50128;52.094;5.232;2022-12-07T00:53:45;101706.0;;;3.61;100.0
63954;BME280;50128;52.094;5.232;2022-12-07T00:55:22;101709.0;;;3.53;100.0
63954;BME280;50128;52.094;5.232;2022-12-07T00:56:59;101709.0;;;3.43;100.0
63954;BME280;50128;52.094;5.232;2022-12-07T01:00:11;101708.0;;;3.41;100.0
63954;BME280;50128;52.094;5.232;2022-12-07T01:01:48;101705.0;;;3.34;100.0
63954;BME280;50128;52.094;5.232;2022-12-07T01:03:24;101707.0;;;3.27;100.0
63954;BME280;50128;52.094;5.232;2022-12-07T01:06:38;101705.0;;;3.17;100.0
63954;BME280;50128;52.094;5.232;2022-12-07T01:08:14;101698.0;;;3.15;100.0
63954;BME280;50128;52.094;5.232;2022-12-07T01:09:50;101698.0;;;3.16;100.0
63954;BME280;50128;52.094;5.232;2022-12-07T01:13:05;101701.0;;;3.2;100.0
63954;BME280;50128;52.094;5.232;2022-12-07T01:14:42;101700.0;;;3.13;100.0
63954;BME280;50128;52.094;5.232;2022-12-07T01:16:18;101706.0;;;3.08;100.0
63954;BME280;50128;52.094;5.232;2022-12-07T01:17:56;101711.0;;;3.08;100.0
63954;BME280;50128;52.094;5.232;2022-12-07T01:21:10;101711.0;;;3.14;100.0
63954;BME280;50128;52.094;5.232;2022-12-07T01:22:47;101712.0;;;3.16;100.0
63954;BME280;50128;52.094;5.232;2022-12-07T01:24:23;101712.0;;;3.15;100.0
63954;BME280;50128;52.094;5.232;2022-12-07T01:27:39;101721.0;;;3.07;100.0
63954;BME280;50128;52.094;5.232;2022-12-07T01:29:15;101722.0;;;3.08;100.0
63954;BME280;50128;52.094;5.232;2022-12-07T01:30:56;101719.0;;;2.99;100.0
63954;BME280;50128;52.094;5.232;2022-12-07T01:32:33;101712.0;;;2.95;100.0
63954;BME280;50128;52.094;5.232;2022-12-07T01:35:46;101714.0;;;2.91;100.0
63954;BME280;50128;52.094;5.232;2022-12-07T01:37:22;101714.0;;;2.88;100.0
63954;BME280;50128;52.094;5.232;2022-12-07T01:39:00;101708.0;;;2.81;100.0
63954;BME280;50128;52.094;5.232;2022-12-07T01:42:13;101711.0;;;2.82;100.0
63954;BME280;50128;52.094;5.232;2022-12-07T01:44:22;101711.0;;;2.79;100.0
63954;BME280;50128;52.094;5.232;2022-12-07T01:45:59;101716.0;;;2.73;100.0
63954;BME280;50128;52.094;5.232;2022-12-07T01:47:39;101712.0;;;2.68;100.0
63954;BME280;50128;52.094;5.232;2022-12-07T01:49:22;101709.0;;;2.65;100.0
63954;BME280;50128;52.094;5.232;2022-12-07T01:52:43;101707.0;;;2.61;100.0
63954;BME280;50128;52.094;5.232;2022-12-07T01:54:25;101707.0;;;2.56;100.0
63954;BME280;50128;52.094;5.232;2022-12-07T01:56:02;101709.0;;;2.54;100.0
63954;BME280;50128;52.094;5.232;2022-12-07T01:57:40;101712.0;;;2.5;100.0
63954;BME280;50128;52.094;5.232;2022-12-07T02:00:59;101711.0;;;2.54;100.0
63954;BME280;50128;52.094;5.232;2022-12-07T02:02:38;101714.0;;;2.54;100.0
63954;BME280;50128;52.094;5.232;2022-12-07T02:04:18;101709.0;;;2.59;100.0
63954;BME280;50128;52.094;5.232;2022-12-07T02:05:55;101714.0;;;2.67;100.0
63954;BME280;50128;52.094;5.232;2022-12-07T02:09:14;101710.0;;;2.75;100.0
63954;BME280;50128;52.094;5.232;2022-12-07T02:10:51;101713.0;;;2.95;100.0
63954;BME280;50128;52.094;5.232;2022-12-07T02:12:27;101710.0;;;3.08;100.0
63954;BME280;50128;52.094;5.232;2022-12-07T02:15:51;101705.0;;;3.24;100.0
63954;BME280;50128;52.094;5.232;2022-12-07T02:17:48;101706.0;;;3.18;100.0
63954;BME280;50128;52.094;5.232;2022-12-07T02:20:17;101703.0;;;3.45;100.0
63954;BME280;50128;52.094;5.232;2022-12-07T02:22:24;101702.0;;;3.53;100.0
63954;BME280;50128;52.094;5.232;2022-12-07T02:24:47;101706.0;;;3.71;100.0
63954;BME280;50128;52.094;5.232;2022-12-07T02:27:06;101701.0;;;3.86;100.0
63954;BME280;50128;52.094;5.232;2022-12-07T02:29:33;101705.0;;;3.84;100.0
63954;BME280;50128;52.094;5.232;2022-12-07T02:31:17;101700.0;;;3.84;100.0
63954;BME280;50128;52.094;5.232;2022-12-07T02:34:44;101697.0;;;3.89;100.0
63954;BME280;50128;52.094;5.232;2022-12-07T02:36:27;101694.0;;;3.93;100.0
63954;BME280;50128;52.094;5.232;2022-12-07T02:38:14;101692.0;;;4.12;100.0
63954;BME280;50128;52.094;5.232;2022-12-07T02:39:55;101691.0;;;4.03;100.0
63954;BME280;50128;52.094;5.232;2022-12-07T02:41:36;101694.0;;;4.0;100.0
63954;BME280;50128;52.094;5.232;2022-12-07T02:45:00;101693.0;;;4.0;100.0
63954;BME280;50128;52.094;5.232;2022-12-07T02:46:42;101691.0;;;3.9;100.0
63954;BME280;50128;52.094;5.232;2022-12-07T02:48:20;101692.0;;;3.87;100.0
63954;BME280;50128;52.094;5.232;2022-12-07T02:49:57;101692.0;;;3.77;100.0
63954;BME280;50128;52.094;5.232;2022-12-07T02:53:46;101690.0;;;3.71;100.0
63954;BME280;50128;52.094;5.232;2022-12-07T02:55:27;101689.0;;;3.66;100.0
63954;BME280;50128;52.094;5.232;2022-12-07T02:57:16;101690.0;;;3.55;100.0
63954;BME280;50128;52.094;5.232;2022-12-07T02:59:04;101692.0;;;3.52;100.0
63954;BME280;50128;52.094;5.232;2022-12-07T03:01:02;101692.0;;;3.47;100.0
63954;BME280;50128;52.094;5.232;2022-12-07T03:02:51;101695.0;;;3.37;100.0
63954;BME280;50128;52.094;5.232;2022-12-07T03:04:36;101698.0;;;3.37;100.0
63954;BME280;50128;52.094;5.232;2022-12-07T03:08:10;101706.0;;;3.38;100.0
63954;BME280;50128;52.094;5.232;2022-12-07T03:09:53;101712.0;;;3.53;100.0
63954;BME280;50128;52.094;5.232;2022-12-07T03:11:42;101715.0;;;3.78;100.0
63954;BME280;50128;52.094;5.232;2022-12-07T03:13:25;101703.0;;;3.85;100.0
63954;BME280;50128;52.094;5.232;2022-12-07T03:15:08;101692.0;;;3.82;100.0
63954;BME280;50128;52.094;5.232;2022-12-07T03:18:35;101686.0;;;3.98;100.0
63954;BME280;50128;52.094;5.232;2022-12-07T03:20:19;101684.0;;;4.05;100.0
63954;BME280;50128;52.094;5.232;2022-12-07T03:22:00;101687.0;;;4.04;100.0
63954;BME280;50128;52.094;5.232;2022-12-07T03:23:40;101683.0;;;3.92;100.0
63954;BME280;50128;52.094;5.232;2022-12-07T03:27:01;101684.0;;;3.84;100.0
63954;BME280;50128;52.094;5.232;2022-12-07T03:28:51;101682.0;;;3.83;100.0
63954;BME280;50128;52.094;5.232;2022-12-07T03:30:34;101680.0;;;3.72;100.0
63954;BME280;50128;52.094;5.232;2022-12-07T03:32:16;101681.0;;;3.62;100.0
63954;BME280;50128;52.094;5.232;2022-12-07T03:34:06;101680.0;;;3.57;100.0
63954;BME280;50128;52.094;5.232;2022-12-07T03:35:55;101677.0;;;3.44;100.0
63954;BME280;50128;52.094;5.232;2022-12-07T03:39:23;101678.0;;;3.4;100.0
63954;BME280;50128;52.094;5.232;2022-12-07T03:41:05;101677.0;;;3.3;100.0
63954;BME280;50128;52.094;5.232;2022-12-07T03:42:46;101677.0;;;3.19;100.0
63954;BME280;50128;52.094;5.232;2022-12-07T03:44:23;101674.0;;;3.06;100.0
63954;BME280;50128;52.094;5.232;2022-12-07T03:47:54;101671.0;;;2.96;100.0
63954;BME280;50128;52.094;5.232;2022-12-07T03:49:43;101668.0;;;2.88;100.0
63954;BME280;50128;52.094;5.232;2022-12-07T03:51:26;101667.0;;;2.87;100.0
63954;BME280;50128;52.094;5.232;2022-12-07T03:53:09;101669.0;;;2.88;100.0
63954;BME280;50128;52.094;5.232;2022-12-07T03:54:52;101670.0;;;2.89;100.0
63954;BME280;50128;52.094;5.232;2022-12-07T03:58:14;101677.0;;;3.0;100.0
63954;BME280;50128;52.094;5.232;2022-12-07T03:59:54;101674.0;;;2.89;100.0
63954;BME280;50128;52.094;5.232;2022-12-07T04:01:32;101671.0;;;2.85;100.0
63954;BME280;50128;52.094;5.232;2022-12-07T04:03:08;101681.0;;;2.82;100.0
63954;BME280;50128;52.094;5.232;2022-12-07T04:06:21;101677.0;;;2.79;100.0
63954;BME280;50128;52.094;5.232;2022-12-07T04:07:57;101675.0;;;2.75;100.0
63954;BME280;50128;52.094;5.232;2022-12-07T04:09:33;101670.0;;;2.8;100.0
63954;BME280;50128;52.094;5.232;2022-12-07T04:12:46;101667.0;;;2.87;100.0
63954;BME280;50128;52.094;5.232;2022-12-07T04:14:23;101664.0;;;2.81;100.0
63954;BME280;50128;52.094;5.232;2022-12-07T04:15:59;101666.0;;;2.79;100.0
63954;BME280;50128;52.094;5.232;2022-12-07T04:19:13;101664.0;;;2.86;100.0
63954;BME280;50128;52.094;5.232;2022-12-07T04:20:50;101660.0;;;2.8;100.0
63954;BME280;50128;52.094;5.232;2022-12-07T04:22:26;101670.0;;;2.68;100.0
63954;BME280;50128;52.094;5.232;2022-12-07T04:24:02;101668.0;;;2.68;100.0
63954;BME280;50128;52.094;5.232;2022-12-07T04:27:16;101665.0;;;2.64;100.0
63954;BME280;50128;52.094;5.232;2022-12-07T04:28:52;101662.0;;;2.58;100.0
63954;BME280;50128;52.094;5.232;2022-12-07T04:30:28;101668.0;;;2.59;100.0
63954;BME280;50128;52.094;5.232;2022-12-07T04:33:41;101666.0;;;2.52;100.0
63954;BME280;50128;52.094;5.232;2022-12-07T04:35:17;101667.0;;;2.5;100.0
63954;BME280;50128;52.094;5.232;2022-12-07T04:36:53;101667.0;;;2.46;100.0
63954;BME280;50128;52.094;5.232;2022-12-07T04:40:07;101667.0;;;2.44;100.0
63954;BME280;50128;52.094;5.232;2022-12-07T04:41:45;101671.0;;;2.52;100.0
63954;BME280;50128;52.094;5.232;2022-12-07T04:43:21;101674.0;;;2.87;100.0
63954;BME280;50128;52.094;5.232;2022-12-07T04:44:57;101680.0;;;3.08;100.0
63954;BME280;50128;52.094;5.232;2022-12-07T04:48:09;101675.0;;;3.19;100.0
63954;BME280;50128;52.094;5.232;2022-12-07T04:49:45;101680.0;;;3.42;100.0
63954;BME280;50128;52.094;5.232;2022-12-07T04:51:24;101673.0;;;3.46;100.0
63954;BME280;50128;52.094;5.232;2022-12-07T04:54:37;101666.0;;;3.27;100.0
63954;BME280;50128;52.094;5.232;2022-12-07T04:56:14;101660.0;;;3.27;100.0
63954;BME280;50128;52.094;5.232;2022-12-07T04:57:50;101656.0;;;3.24;100.0
63954;BME280;50128;52.094;5.232;2022-12-07T05:01:03;101655.0;;;3.2;100.0
63954;BME280;50128;52.094;5.232;2022-12-07T05:02:39;101648.0;;;3.16;100.0
63954;BME280;50128;52.094;5.232;2022-12-07T05:04:16;101647.0;;;3.13;100.0
63954;BME280;50128;52.094;5.232;2022-12-07T05:05:52;101646.0;;;3.01;100.0
63954;BME280;50128;52.094;5.232;2022-12-07T05:09:05;101640.0;;;2.88;100.0
63954;BME280;50128;52.094;5.232;2022-12-07T05:10:42;101648.0;;;2.81;100.0
63954;BME280;50128;52.094;5.232;2022-12-07T05:12:18;101645.0;;;2.82;100.0
63954;BME280;50128;52.094;5.232;2022-12-07T05:15:31;101642.0;;;2.73;100.0
63954;BME280;50128;52.094;5.232;2022-12-07T05:17:08;101648.0;;;2.69;100.0
63954;BME280;50128;52.094;5.232;2022-12-07T05:18:43;101645.0;;;2.66;100.0
63954;BME280;50128;52.094;5.232;2022-12-07T05:21:56;101645.0;;;2.7;100.0
63954;BME280;50128;52.094;5.232;2022-12-07T05:23:32;101643.0;;;2.71;100.0
63954;BME280;50128;52.094;5.232;2022-12-07T05:25:08;101643.0;;;2.71;100.0
63954;BME280;50128;52.094;5.232;2022-12-07T05:26:45;101646.0;;;2.7;100.0
63954;BME280;50128;52.094;5.232;2022-12-07T05:29:58;101646.0;;;2.68;100.0
63954;BME280;50128;52.094;5.232;2022-12-07T05:31:34;101645.0;;;2.72;100.0
63954;BME280;50128;52.094;5.232;2022-12-07T05:33:10;101638.0;;;2.69;100.0
63954;BME280;50128;52.094;5.232;2022-12-07T05:36:23;101643.0;;;2.66;100.0
63954;BME280;50128;52.094;5.232;2022-12-07T05:37:59;101643.0;;;2.61;100.0
63954;BME280;50128;52.094;5.232;2022-12-07T05:39:35;101644.0;;;2.54;100.0
63954;BME280;50128;52.094;5.232;2022-12-07T05:43:48;101645.0;;;2.46;100.0
63954;BME280;50128;52.094;5.232;2022-12-07T05:47:00;101649.0;;;2.39;100.0
63954;BME280;50128;52.094;5.232;2022-12-07T05:48:36;101649.0;;;2.38;100.0
63954;BME280;50128;52.094;5.232;2022-12-07T05:50:12;101655.0;;;2.37;100.0
63954;BME280;50128;52.094;5.232;2022-12-07T05:51:48;101650.0;;;2.35;100.0
63954;BME280;50128;52.094;5.232;2022-12-07T05:55:01;101647.0;;;2.34;100.0
63954;BME280;50128;52.094;5.232;2022-12-07T05:56:37;101651.0;;;2.38;100.0
63954;BME280;50128;52.094;5.232;2022-12-07T05:59:30;101653.0;;;2.39;100.0
63954;BME280;50128;52.094;5.232;2022-12-07T06:01:06;101649.0;;;2.44;100.0
63954;BME280;50128;52.094;5.232;2022-12-07T06:02:43;101648.0;;;2.46;100.0
63954;BME280;50128;52.094;5.232;2022-12-07T06:05:56;101646.0;;;2.4;100.0
63954;BME280;50128;52.094;5.232;2022-12-07T06:07:32;101648.0;;;2.39;100.0
63954;BME280;50128;52.094;5.232;2022-12-07T06:09:08;101648.0;;;2.37;100.0
63954;BME280;50128;52.094;5.232;2022-12-07T06:10:47;101643.0;;;2.35;100.0
63954;BME280;50128;52.094;5.232;2022-12-07T06:14:16;101644.0;;;2.27;100.0
63954;BME280;50128;52.094;5.232;2022-12-07T06:15:52;101652.0;;;2.33;100.0
63954;BME280;50128;52.094;5.232;2022-12-07T06:17:28;101650.0;;;2.21;100.0
63954;BME280;50128;52.094;5.232;2022-12-07T06:19:04;101650.0;;;2.21;100.0
63954;BME280;50128;52.094;5.232;2022-12-07T06:22:17;101653.0;;;2.14;100.0
63954;BME280;50128;52.094;5.232;2022-12-07T06:23:54;101656.0;;;2.12;100.0
63954;BME280;50128;52.094;5.232;2022-12-07T06:25:30;101655.0;;;2.11;100.0
63954;BME280;50128;52.094;5.232;2022-12-07T06:28:43;101655.0;;;2.14;100.0
63954;BME280;50128;52.094;5.232;2022-12-07T06:30:19;101650.0;;;2.14;100.0
63954;BME280;50128;52.094;5.232;2022-12-07T06:31:56;101647.0;;;2.25;100.0
63954;BME280;50128;52.094;5.232;2022-12-07T06:35:08;101650.0;;;2.29;100.0
63954;BME280;50128;52.094;5.232;2022-12-07T06:36:46;101652.0;;;2.29;100.0
63954;BME280;50128;52.094;5.232;2022-12-07T06:38:23;101656.0;;;2.32;100.0
63954;BME280;50128;52.094;5.232;2022-12-07T06:39:59;101657.0;;;2.35;100.0
63954;BME280;50128;52.094;5.232;2022-12-07T06:43:13;101655.0;;;2.27;100.0
63954;BME280;50128;52.094;5.232;2022-12-07T06:44:50;101652.0;;;2.17;100.0
63954;BME280;50128;52.094;5.232;2022-12-07T06:46:26;101652.0;;;2.11;100.0
63954;BME280;50128;52.094;5.232;2022-12-07T06:49:39;101657.0;;;2.05;100.0
63954;BME280;50128;52.094;5.232;2022-12-07T06:51:15;101652.0;;;2.02;100.0
63954;BME280;50128;52.094;5.232;2022-12-07T06:52:52;101652.0;;;2.05;100.0
63954;BME280;50128;52.094;5.232;2022-12-07T06:56:07;101652.0;;;2.02;100.0
63954;BME280;50128;52.094;5.232;2022-12-07T06:57:43;101653.0;;;2.04;100.0
63954;BME280;50128;52.094;5.232;2022-12-07T06:59:20;101651.0;;;2.19;100.0
63954;BME280;50128;52.094;5.232;2022-12-07T07:00:57;101646.0;;;2.15;100.0
63954;BME280;50128;52.094;5.232;2022-12-07T07:04:09;101648.0;;;2.11;100.0
63954;BME280;50128;52.094;5.232;2022-12-07T07:05:45;101655.0;;;2.09;100.0
63954;BME280;50128;52.094;5.232;2022-12-07T07:07:21;101661.0;;;2.12;100.0
63954;BME280;50128;52.094;5.232;2022-12-07T07:10:34;101659.0;;;2.11;100.0
63954;BME280;50128;52.094;5.232;2022-12-07T07:12:11;101652.0;;;2.21;100.0
63954;BME280;50128;52.094;5.232;2022-12-07T07:13:47;101655.0;;;2.23;100.0
63954;BME280;50128;52.094;5.232;2022-12-07T07:16:59;101647.0;;;2.31;100.0
63954;BME280;50128;52.094;5.232;2022-12-07T07:18:36;101647.0;;;2.27;100.0
63954;BME280;50128;52.094;5.232;2022-12-07T07:20:13;101646.0;;;2.27;100.0
63954;BME280;50128;52.094;5.232;2022-12-07T07:21:49;101648.0;;;2.23;100.0
63954;BME280;50128;52.094;5.232;2022-12-07T07:25:01;101652.0;;;2.23;100.0
63954;BME280;50128;52.094;5.232;2022-12-07T07:26:39;101650.0;;;2.23;100.0
63954;BME280;50128;52.094;5.232;2022-12-07T07:28:16;101653.0;;;2.25;100.0
63954;BME280;50128;52.094;5.232;2022-12-07T07:31:28;101650.0;;;2.12;100.0
63954;BME280;50128;52.094;5.232;2022-12-07T07:37:54;101657.0;;;2.04;100.0
63954;BME280;50128;52.094;5.232;2022-12-07T07:39:31;101662.0;;;1.96;100.0
63954;BME280;50128;52.094;5.232;2022-12-07T07:41:07;101658.0;;;1.91;100.0
63954;BME280;50128;52.094;5.232;2022-12-07T07:42:43;101653.0;;;1.85;100.0
63954;BME280;50128;52.094;5.232;2022-12-07T08:06:49;101655.0;;;1.57;100.0
63954;BME280;50128;52.094;5.232;2022-12-07T08:08:25;101660.0;;;1.63;100.0
63954;BME280;50128;52.094;5.232;2022-12-07T08:34:16;101681.0;;;3.04;100.0
63954;BME280;50128;52.094;5.232;2022-12-07T08:35:52;101684.0;;;3.32;100.0
63954;BME280;50128;52.094;5.232;2022-12-07T09:59:12;101668.0;;;5.55;100.0
63954;BME280;50128;52.094;5.232;2022-12-07T10:12:28;101659.0;;;5.78;100.0
63954;BME280;50128;52.094;5.232;2022-12-07T10:15:51;101645.0;;;5.89;100.0
63954;BME280;50128;52.094;5.232;2022-12-07T10:17:34;101643.0;;;5.91;99.34
63954;BME280;50128;52.094;5.232;2022-12-07T10:40:38;101621.0;;;6.08;96.06
63954;BME280;50128;52.094;5.232;2022-12-07T10:43:56;101615.0;;;6.13;96.6
63954;BME280;50128;52.094;5.232;2022-12-07T10:45:35;101615.0;;;6.29;96.35
63954;BME280;50128;52.094;5.232;2022-12-07T10:47:26;101609.0;;;6.54;96.67
63954;BME280;50128;52.094;5.232;2022-12-07T10:49:21;101605.0;;;6.59;96.28
63954;BME280;50128;52.094;5.232;2022-12-07T10:52:34;101607.0;;;6.66;95.19
63954;BME280;50128;52.094;5.232;2022-12-07T10:54:25;101605.0;;;6.77;94.42
63954;BME280;50128;52.094;5.232;2022-12-07T10:56:25;101606.0;;;6.75;93.5
63954;BME280;50128;52.094;5.232;2022-12-07T10:58:31;101607.0;;;6.83;93.79
63954;BME280;50128;52.094;5.232;2022-12-07T11:00:17;101607.0;;;6.88;92.18
63954;BME280;50128;52.094;5.232;2022-12-07T11:02:02;101611.0;;;6.81;91.29
63954;BME280;50128;52.094;5.232;2022-12-07T11:04:13;101616.0;;;6.84;91.65
63954;BME280;50128;52.094;5.232;2022-12-07T11:05:56;101618.0;;;6.92;91.3
63954;BME280;50128;52.094;5.232;2022-12-07T11:07:47;101615.0;;;6.94;91.08
63954;BME280;50128;52.094;5.232;2022-12-07T11:11:49;101606.0;;;6.82;91.22
63954;BME280;50128;52.094;5.232;2022-12-07T11:13:38;101605.0;;;6.64;90.96
63954;BME280;50128;52.094;5.232;2022-12-07T11:15:24;101597.0;;;6.62;92.62
63954;BME280;50128;52.094;5.232;2022-12-07T11:17:07;101596.0;;;6.7;93.22
63954;BME280;50128;52.094;5.232;2022-12-07T11:18:59;101596.0;;;6.62;93.17
63954;BME280;50128;52.094;5.232;2022-12-07T11:20:46;101591.0;;;6.49;92.91
63954;BME280;50128;52.094;5.232;2022-12-07T11:22:32;101586.0;;;6.47;93.35
63954;BME280;50128;52.094;5.232;2022-12-07T11:25:59;101587.0;;;6.48;93.87
63954;BME280;50128;52.094;5.232;2022-12-07T11:27:47;101589.0;;;6.56;93.15
63954;BME280;50128;52.094;5.232;2022-12-07T11:29:47;101590.0;;;6.5;91.92
63954;BME280;50128;52.094;5.232;2022-12-07T11:31:36;101581.0;;;6.54;91.61
63954;BME280;50128;52.094;5.232;2022-12-07T11:33:33;101581.0;;;6.41;92.77
63954;BME280;50128;52.094;5.232;2022-12-07T11:35:22;101577.0;;;6.48;92.79
63954;BME280;50128;52.094;5.232;2022-12-07T11:37:10;101572.0;;;6.48;93.48
63954;BME280;50128;52.094;5.232;2022-12-07T11:40:31;101570.0;;;6.64;93.33
63954;BME280;50128;52.094;5.232;2022-12-07T11:42:14;101570.0;;;6.58;92.7
63954;BME280;50128;52.094;5.232;2022-12-07T11:44:00;101566.0;;;6.61;92.93
63954;BME280;50128;52.094;5.232;2022-12-07T11:45:42;101563.0;;;6.66;91.54
63954;BME280;50128;52.094;5.232;2022-12-07T11:49:10;101564.0;;;6.59;92.42
63954;BME280;50128;52.094;5.232;2022-12-07T16:12:25;101353.0;;;5.24;94.67
63954;BME280;50128;52.094;5.232;2022-12-07T16:14:01;101349.0;;;5.23;95.23
63954;BME280;50128;52.094;5.232;2022-12-07T16:18:51;101349.0;;;5.03;95.65
63954;BME280;50128;52.094;5.232;2022-12-07T16:20:28;101350.0;;;4.99;95.82
63954;BME280;50128;52.094;5.232;2022-12-07T16:22:04;101346.0;;;4.95;95.98
63954;BME280;50128;52.094;5.232;2022-12-07T16:23:41;101346.0;;;5.12;95.14
63954;BME280;50128;52.094;5.232;2022-12-07T16:26:54;101350.0;;;4.93;96.16
63954;BME280;50128;52.094;5.232;2022-12-07T16:33:21;101341.0;;;5.11;95.92
63954;BME280;50128;52.094;5.232;2022-12-07T16:34:57;101338.0;;;5.13;95.33
63954;BME280;50128;52.094;5.232;2022-12-07T16:39:46;101333.0;;;5.23;94.97
63954;BME280;50128;52.094;5.232;2022-12-07T16:41:22;101331.0;;;5.18;95.11
63954;BME280;50128;52.094;5.232;2022-12-07T16:42:59;101326.0;;;5.03;95.69
63954;BME280;50128;52.094;5.232;2022-12-07T16:44:35;101326.0;;;4.99;96.27
63954;BME280;50128;52.094;5.232;2022-12-07T16:47:49;101326.0;;;5.11;95.81
63954;BME280;50128;52.094;5.232;2022-12-07T16:49:25;101324.0;;;4.99;95.99
63954;BME280;50128;52.094;5.232;2022-12-07T16:52:40;101326.0;;;4.93;96.61
63954;BME280;50128;52.094;5.232;2022-12-07T16:54:16;101322.0;;;4.91;96.62
63954;BME280;50128;52.094;5.232;2022-12-07T16:55:53;101319.0;;;4.88;96.83
63954;BME280;50128;52.094;5.232;2022-12-07T16:57:30;101319.0;;;5.01;96.29
63954;BME280;50128;52.094;5.232;2022-12-07T17:00:43;101316.0;;;4.99;96.09
63954;BME280;50128;52.094;5.232;2022-12-07T17:02:20;101314.0;;;4.99;96.24
63954;BME280;50128;52.094;5.232;2022-12-07T17:03:57;101314.0;;;4.95;96.58
63954;BME280;50128;52.094;5.232;2022-12-07T17:05:37;101312.0;;;4.91;96.45
63954;BME280;50128;52.094;5.232;2022-12-07T17:08:51;101313.0;;;4.83;96.97
63954;BME280;50128;52.094;5.232;2022-12-07T17:10:27;101311.0;;;4.8;96.93
63954;BME280;50128;52.094;5.232;2022-12-07T17:12:05;101308.0;;;4.79;97.25
63954;BME280;50128;52.094;5.232;2022-12-07T17:17:06;101306.0;;;4.82;96.86
63954;BME280;50128;52.094;5.232;2022-12-07T17:18:43;101305.0;;;4.89;96.47
63954;BME280;50128;52.094;5.232;2022-12-07T17:20:21;101305.0;;;4.78;97.35
63954;BME280;50128;52.094;5.232;2022-12-07T17:23:36;101308.0;;;4.8;97.2
63954;BME280;50128;52.094;5.232;2022-12-07T17:25:12;101305.0;;;4.82;96.78
63954;BME280;50128;52.094;5.232;2022-12-07T17:26:49;101302.0;;;4.79;96.78
63954;BME280;50128;52.094;5.232;2022-12-07T17:28:26;101300.0;;;4.83;96.8
63954;BME280;50128;52.094;5.232;2022-12-07T17:31:42;101298.0;;;4.84;96.82
63954;BME280;50128;52.094;5.232;2022-12-07T17:33:20;101297.0;;;4.82;96.78
63954;BME280;50128;52.094;5.232;2022-12-07T17:34:56;101294.0;;;4.8;96.74
63954;BME280;50128;52.094;5.232;2022-12-07T17:38:08;101291.0;;;4.91;96.09
63954;BME280;50128;52.094;5.232;2022-12-07T17:39:45;101286.0;;;4.86;96.33
63954;BME280;50128;52.094;5.232;2022-12-07T17:42:35;101294.0;;;4.82;96.54
63954;BME280;50128;52.094;5.232;2022-12-07T17:44:13;101303.0;;;4.91;96.15
63954;BME280;50128;52.094;5.232;2022-12-07T17:45:50;101312.0;;;5.0;95.54
63954;BME280;50128;52.094;5.232;2022-12-07T17:47:27;101310.0;;;5.0;95.88
63954;BME280;50128;52.094;5.232;2022-12-07T17:54:52;101301.0;;;5.0;95.66
63954;BME280;50128;52.094;5.232;2022-12-07T17:56:28;101297.0;;;5.03;96.24
63954;BME280;50128;52.094;5.232;2022-12-07T17:58:05;101293.0;;;4.95;96.48
63954;BME280;50128;52.094;5.232;2022-12-07T18:01:18;101293.0;;;4.93;96.58
63954;BME280;50128;52.094;5.232;2022-12-07T18:02:54;101289.0;;;4.82;97.32
63954;BME280;50128;52.094;5.232;2022-12-07T18:04:30;101290.0;;;4.75;97.96
63954;BME280;50128;52.094;5.232;2022-12-07T18:25:38;101264.0;;;4.53;100.0
63954;BME280;50128;52.094;5.232;2022-12-07T18:27:15;101262.0;;;4.53;100.0
63954;BME280;50128;52.094;5.232;2022-12-07T18:32:05;101269.0;;;4.62;100.0
63954;BME280;50128;52.094;5.232;2022-12-07T18:45:01;101255.0;;;4.76;100.0
63954;BME280;50128;52.094;5.232;2022-12-07T18:46:37;101256.0;;;4.75;100.0
63954;BME280;50128;52.094;5.232;2022-12-07T18:48:15;101251.0;;;4.82;100.0
63954;BME280;50128;52.094;5.232;2022-12-07T18:51:29;101247.0;;;4.84;99.81
63954;BME280;50128;52.094;5.232;2022-12-07T18:53:06;101248.0;;;4.86;99.95
63954;BME280;50128;52.094;5.232;2022-12-07T18:54:43;101246.0;;;4.78;100.0
63954;BME280;50128;52.094;5.232;2022-12-07T18:56:23;101246.0;;;4.87;99.87
63954;BME280;50128;52.094;5.232;2022-12-07T18:59:52;101248.0;;;4.84;99.96
63954;BME280;50128;52.094;5.232;2022-12-07T19:01:30;101247.0;;;4.79;99.68
63954;BME280;50128;52.094;5.232;2022-12-07T19:03:06;101243.0;;;4.74;100.0
63954;BME280;50128;52.094;5.232;2022-12-07T19:04:43;101245.0;;;4.75;100.0
63954;BME280;50128;52.094;5.232;2022-12-07T19:07:55;101244.0;;;4.87;100.0
63954;BME280;50128;52.094;5.232;2022-12-07T19:09:31;101249.0;;;4.8;100.0